sensor_id;sensor_type;location;lat;lon;timestamp;P1;durP1;ratioP1;P2;durP2;ratioP2
21120;SDS011;12519;43.318;21.898;2023-05-07T00:02:29;6.0;;;5.0;;
21120;SDS011;12519;43.318;21.898;2023-05-07T00:07:06;6.0;;;5.0;;
21120;SDS011;12519;43.318;21.898;2023-05-07T00:11:42;6.0;;;6.0;;
21120;SDS011;12519;43.318;21.898;2023-05-07T00:16:19;6.0;;;6.0;;
21120;SDS011;12519;43.318;21.898;2023-05-07T00:20:57;7.0;;;7.0;;
21120;SDS011;12519;43.318;21.898;2023-05-07T00:25:34;7.0;;;7.0;;
21120;SDS011;12519;43.318;21.898;2023-05-07T00:30:13;7.0;;;7.0;;
21120;SDS011;12519;43.318;21.898;2023-05-07T00:34:50;8.0;;;6.0;;
21120;SDS011;12519;43.318;21.898;2023-05-07T00:39:27;8.0;;;6.0;;
21120;SDS011;12519;43.318;21.898;2023-05-07T00:44:04;8.0;;;6.0;;
21120;SDS011;12519;43.318;21.898;2023-05-07T00:48:41;8.0;;;6.0;;
21120;SDS011;12519;43.318;21.898;2023-05-07T00:53:19;9.0;;;6.0;;
21120;SDS011;12519;43.318;21.898;2023-05-07T00:57:57;9.0;;;6.0;;
21120;SDS011;12519;43.318;21.898;2023-05-07T01:02:35;10.0;;;7.0;;
21120;SDS011;12519;43.318;21.898;2023-05-07T01:07:13;10.0;;;7.0;;
21120;SDS011;12519;43.318;21.898;2023-05-07T01:11:52;8.0;;;6.0;;
21120;SDS011;12519;43.318;21.898;2023-05-07T01:16:32;8.0;;;6.0;;
21120;SDS011;12519;43.318;21.898;2023-05-07T01:21:11;7.0;;;5.0;;
21120;SDS011;12519;43.318;21.898;2023-05-07T01:25:55;7.0;;;5.0;;
21120;SDS011;12519;43.318;21.898;2023-05-07T01:30:37;7.0;;;5.0;;
21120;SDS011;12519;43.318;21.898;2023-05-07T01:35:40;8.0;;;5.0;;
21120;SDS011;12519;43.318;21.898;2023-05-07T01:40:27;8.0;;;5.0;;
21120;SDS011;12519;43.318;21.898;2023-05-07T01:45:08;8.0;;;5.0;;
21120;SDS011;12519;43.318;21.898;2023-05-07T01:49:47;8.0;;;5.0;;
21120;SDS011;12519;43.318;21.898;2023-05-07T01:54:27;7.0;;;6.0;;
21120;SDS011;12519;43.318;21.898;2023-05-07T01:59:04;7.0;;;6.0;;
21120;SDS011;12519;43.318;21.898;2023-05-07T02:03:41;6.0;;;6.0;;
21120;SDS011;12519;43.318;21.898;2023-05-07T02:08:18;6.0;;;6.0;;
21120;SDS011;12519;43.318;21.898;2023-05-07T02:12:55;6.0;;;6.0;;
21120;SDS011;12519;43.318;21.898;2023-05-07T02:17:32;6.0;;;6.0;;
21120;SDS011;12519;43.318;21.898;2023-05-07T02:22:10;7.0;;;6.0;;
21120;SDS011;12519;43.318;21.898;2023-05-07T02:26:46;7.0;;;6.0;;
21120;SDS011;12519;43.318;21.898;2023-05-07T02:31:23;8.0;;;7.0;;
21120;SDS011;12519;43.318;21.898;2023-05-07T02:36:09;8.0;;;7.0;;
21120;SDS011;12519;43.318;21.898;2023-05-07T02:40:46;8.0;;;7.0;;
21120;SDS011;12519;43.318;21.898;2023-05-07T02:45:22;8.0;;;8.0;;
21120;SDS011;12519;43.318;21.898;2023-05-07T02:49:59;8.0;;;8.0;;
21120;SDS011;12519;43.318;21.898;2023-05-07T02:54:36;8.0;;;8.0;;
21120;SDS011;12519;43.318;21.898;2023-05-07T02:59:12;8.0;;;8.0;;
21120;SDS011;12519;43.318;21.898;2023-05-07T03:03:49;8.0;;;7.0;;
21120;SDS011;12519;43.318;21.898;2023-05-07T03:08:27;8.0;;;7.0;;
21120;SDS011;12519;43.318;21.898;2023-05-07T03:13:05;8.0;;;8.0;;
21120;SDS011;12519;43.318;21.898;2023-05-07T03:17:41;8.0;;;8.0;;
21120;SDS011;12519;43.318;21.898;2023-05-07T03:22:18;9.0;;;8.0;;
21120;SDS011;12519;43.318;21.898;2023-05-07T03:26:54;9.0;;;8.0;;
21120;SDS011;12519;43.318;21.898;2023-05-07T03:31:31;8.0;;;8.0;;
21120;SDS011;12519;43.318;21.898;2023-05-07T03:36:08;8.0;;;8.0;;
21120;SDS011;12519;43.318;21.898;2023-05-07T03:40:44;8.0;;;8.0;;
21120;SDS011;12519;43.318;21.898;2023-05-07T03:45:21;8.0;;;7.0;;
21120;SDS011;12519;43.318;21.898;2023-05-07T03:49:58;8.0;;;7.0;;
21120;SDS011;12519;43.318;21.898;2023-05-07T03:54:34;8.0;;;7.0;;
21120;SDS011;12519;43.318;21.898;2023-05-07T03:59:12;8.0;;;7.0;;
21120;SDS011;12519;43.318;21.898;2023-05-07T04:03:49;8.0;;;7.0;;
21120;SDS011;12519;43.318;21.898;2023-05-07T04:08:26;8.0;;;7.0;;
21120;SDS011;12519;43.318;21.898;2023-05-07T04:13:03;8.0;;;6.0;;
21120;SDS011;12519;43.318;21.898;2023-05-07T04:17:40;8.0;;;6.0;;
21120;SDS011;12519;43.318;21.898;2023-05-07T04:22:16;7.0;;;6.0;;
21120;SDS011;12519;43.318;21.898;2023-05-07T04:26:53;7.0;;;6.0;;
21120;SDS011;12519;43.318;21.898;2023-05-07T04:31:30;10.0;;;8.0;;
21120;SDS011;12519;43.318;21.898;2023-05-07T04:36:08;10.0;;;8.0;;
21120;SDS011;12519;43.318;21.898;2023-05-07T04:40:45;10.0;;;8.0;;
21120;SDS011;12519;43.318;21.898;2023-05-07T04:45:22;12.0;;;11.0;;
21120;SDS011;12519;43.318;21.898;2023-05-07T04:49:59;12.0;;;11.0;;
21120;SDS011;12519;43.318;21.898;2023-05-07T04:54:36;16.0;;;13.0;;
21120;SDS011;12519;43.318;21.898;2023-05-07T04:59:12;16.0;;;13.0;;
21120;SDS011;12519;43.318;21.898;2023-05-07T05:03:48;19.0;;;15.0;;
21120;SDS011;12519;43.318;21.898;2023-05-07T05:08:25;19.0;;;15.0;;
21120;SDS011;12519;43.318;21.898;2023-05-07T05:13:01;16.0;;;12.0;;
21120;SDS011;12519;43.318;21.898;2023-05-07T05:17:37;16.0;;;12.0;;
21120;SDS011;12519;43.318;21.898;2023-05-07T05:22:13;14.0;;;10.0;;
21120;SDS011;12519;43.318;21.898;2023-05-07T05:26:53;14.0;;;10.0;;
21120;SDS011;12519;43.318;21.898;2023-05-07T05:31:30;14.0;;;10.0;;
21120;SDS011;12519;43.318;21.898;2023-05-07T05:36:10;11.0;;;8.0;;
21120;SDS011;12519;43.318;21.898;2023-05-07T05:40:47;11.0;;;8.0;;
21120;SDS011;12519;43.318;21.898;2023-05-07T05:45:24;8.0;;;7.0;;
21120;SDS011;12519;43.318;21.898;2023-05-07T05:50:02;8.0;;;7.0;;
21120;SDS011;12519;43.318;21.898;2023-05-07T05:54:42;22.0;;;18.0;;
21120;SDS011;12519;43.318;21.898;2023-05-07T05:59:19;22.0;;;18.0;;
21120;SDS011;12519;43.318;21.898;2023-05-07T06:03:56;36.0;;;30.0;;
21120;SDS011;12519;43.318;21.898;2023-05-07T06:08:33;36.0;;;30.0;;
21120;SDS011;12519;43.318;21.898;2023-05-07T06:13:10;34.0;;;27.0;;
21120;SDS011;12519;43.318;21.898;2023-05-07T06:17:46;34.0;;;27.0;;
21120;SDS011;12519;43.318;21.898;2023-05-07T06:22:22;33.0;;;24.0;;
21120;SDS011;12519;43.318;21.898;2023-05-07T06:26:59;33.0;;;24.0;;
21120;SDS011;12519;43.318;21.898;2023-05-07T06:31:35;33.0;;;24.0;;
21120;SDS011;12519;43.318;21.898;2023-05-07T06:36:12;25.0;;;20.0;;
21120;SDS011;12519;43.318;21.898;2023-05-07T06:40:49;25.0;;;20.0;;
21120;SDS011;12519;43.318;21.898;2023-05-07T06:45:26;17.0;;;15.0;;
21120;SDS011;12519;43.318;21.898;2023-05-07T06:50:05;17.0;;;15.0;;
21120;SDS011;12519;43.318;21.898;2023-05-07T06:54:44;15.0;;;13.0;;
21120;SDS011;12519;43.318;21.898;2023-05-07T06:59:21;15.0;;;13.0;;
21120;SDS011;12519;43.318;21.898;2023-05-07T07:03:58;13.0;;;11.0;;
21120;SDS011;12519;43.318;21.898;2023-05-07T07:08:34;13.0;;;11.0;;
21120;SDS011;12519;43.318;21.898;2023-05-07T07:13:11;12.0;;;10.0;;
21120;SDS011;12519;43.318;21.898;2023-05-07T07:17:48;12.0;;;10.0;;
21120;SDS011;12519;43.318;21.898;2023-05-07T07:22:25;12.0;;;10.0;;
21120;SDS011;12519;43.318;21.898;2023-05-07T07:27:02;12.0;;;10.0;;
21120;SDS011;12519;43.318;21.898;2023-05-07T07:31:39;12.0;;;10.0;;
21120;SDS011;12519;43.318;21.898;2023-05-07T07:36:16;12.0;;;10.0;;
21120;SDS011;12519;43.318;21.898;2023-05-07T07:40:52;12.0;;;10.0;;
21120;SDS011;12519;43.318;21.898;2023-05-07T07:45:28;11.0;;;10.0;;
21120;SDS011;12519;43.318;21.898;2023-05-07T07:50:08;11.0;;;10.0;;
21120;SDS011;12519;43.318;21.898;2023-05-07T07:54:45;11.0;;;10.0;;
21120;SDS011;12519;43.318;21.898;2023-05-07T07:59:21;11.0;;;10.0;;
21120;SDS011;12519;43.318;21.898;2023-05-07T08:03:58;11.0;;;10.0;;
21120;SDS011;12519;43.318;21.898;2023-05-07T08:08:34;11.0;;;10.0;;
21120;SDS011;12519;43.318;21.898;2023-05-07T08:13:11;12.0;;;12.0;;
21120;SDS011;12519;43.318;21.898;2023-05-07T08:17:48;12.0;;;12.0;;
21120;SDS011;12519;43.318;21.898;2023-05-07T08:22:24;14.0;;;13.0;;
21120;SDS011;12519;43.318;21.898;2023-05-07T08:27:01;14.0;;;13.0;;
21120;SDS011;12519;43.318;21.898;2023-05-07T08:31:38;14.0;;;13.0;;
21120;SDS011;12519;43.318;21.898;2023-05-07T08:36:15;12.0;;;11.0;;
21120;SDS011;12519;43.318;21.898;2023-05-07T08:40:52;12.0;;;11.0;;
21120;SDS011;12519;43.318;21.898;2023-05-07T08:45:34;9.0;;;9.0;;
21120;SDS011;12519;43.318;21.898;2023-05-07T08:50:12;9.0;;;9.0;;
21120;SDS011;12519;43.318;21.898;2023-05-07T08:54:49;9.0;;;8.0;;
21120;SDS011;12519;43.318;21.898;2023-05-07T08:59:26;9.0;;;8.0;;
21120;SDS011;12519;43.318;21.898;2023-05-07T09:04:04;9.0;;;8.0;;
21120;SDS011;12519;43.318;21.898;2023-05-07T09:08:49;9.0;;;8.0;;
21120;SDS011;12519;43.318;21.898;2023-05-07T09:13:28;11.0;;;10.0;;
21120;SDS011;12519;43.318;21.898;2023-05-07T09:18:05;11.0;;;10.0;;
21120;SDS011;12519;43.318;21.898;2023-05-07T09:22:42;13.0;;;12.0;;
21120;SDS011;12519;43.318;21.898;2023-05-07T09:27:19;13.0;;;12.0;;
21120;SDS011;12519;43.318;21.898;2023-05-07T09:31:56;13.0;;;12.0;;
21120;SDS011;12519;43.318;21.898;2023-05-07T09:36:33;15.0;;;13.0;;
21120;SDS011;12519;43.318;21.898;2023-05-07T09:41:13;15.0;;;13.0;;
21120;SDS011;12519;43.318;21.898;2023-05-07T09:45:50;17.0;;;14.0;;
21120;SDS011;12519;43.318;21.898;2023-05-07T09:50:45;17.0;;;14.0;;
21120;SDS011;12519;43.318;21.898;2023-05-07T09:55:33;14.0;;;12.0;;
21120;SDS011;12519;43.318;21.898;2023-05-07T10:00:14;14.0;;;12.0;;
21120;SDS011;12519;43.318;21.898;2023-05-07T10:04:57;10.0;;;9.0;;
21120;SDS011;12519;43.318;21.898;2023-05-07T10:09:37;10.0;;;9.0;;
21120;SDS011;12519;43.318;21.898;2023-05-07T10:14:17;11.0;;;9.0;;
21120;SDS011;12519;43.318;21.898;2023-05-07T10:18:59;11.0;;;9.0;;
21120;SDS011;12519;43.318;21.898;2023-05-07T10:23:38;12.0;;;9.0;;
21120;SDS011;12519;43.318;21.898;2023-05-07T10:28:23;12.0;;;9.0;;
21120;SDS011;12519;43.318;21.898;2023-05-07T10:33:11;10.0;;;8.0;;
21120;SDS011;12519;43.318;21.898;2023-05-07T10:37:52;10.0;;;8.0;;
21120;SDS011;12519;43.318;21.898;2023-05-07T10:42:29;8.0;;;7.0;;
21120;SDS011;12519;43.318;21.898;2023-05-07T10:47:11;8.0;;;7.0;;
21120;SDS011;12519;43.318;21.898;2023-05-07T10:52:16;9.0;;;8.0;;
21120;SDS011;12519;43.318;21.898;2023-05-07T10:56:56;9.0;;;8.0;;
21120;SDS011;12519;43.318;21.898;2023-05-07T11:02:10;9.0;;;8.0;;
21120;SDS011;12519;43.318;21.898;2023-05-07T11:07:29;10.0;;;9.0;;
21120;SDS011;12519;43.318;21.898;2023-05-07T11:12:07;10.0;;;9.0;;
21120;SDS011;12519;43.318;21.898;2023-05-07T11:16:45;10.0;;;10.0;;
21120;SDS011;12519;43.318;21.898;2023-05-07T11:21:41;10.0;;;10.0;;
21120;SDS011;12519;43.318;21.898;2023-05-07T11:26:20;10.0;;;10.0;;
21120;SDS011;12519;43.318;21.898;2023-05-07T11:30:59;10.0;;;10.0;;
21120;SDS011;12519;43.318;21.898;2023-05-07T11:35:38;14.0;;;10.0;;
21120;SDS011;12519;43.318;21.898;2023-05-07T11:40:15;14.0;;;10.0;;
21120;SDS011;12519;43.318;21.898;2023-05-07T11:44:51;17.0;;;9.0;;
21120;SDS011;12519;43.318;21.898;2023-05-07T11:49:28;17.0;;;9.0;;
21120;SDS011;12519;43.318;21.898;2023-05-07T11:54:06;12.0;;;8.0;;
21120;SDS011;12519;43.318;21.898;2023-05-07T11:58:48;12.0;;;8.0;;
21120;SDS011;12519;43.318;21.898;2023-05-07T12:03:25;8.0;;;8.0;;
21120;SDS011;12519;43.318;21.898;2023-05-07T12:08:02;8.0;;;8.0;;
21120;SDS011;12519;43.318;21.898;2023-05-07T12:12:40;7.0;;;7.0;;
21120;SDS011;12519;43.318;21.898;2023-05-07T12:17:22;7.0;;;7.0;;
21120;SDS011;12519;43.318;21.898;2023-05-07T12:22:01;7.0;;;7.0;;
21120;SDS011;12519;43.318;21.898;2023-05-07T12:26:40;6.0;;;6.0;;
21120;SDS011;12519;43.318;21.898;2023-05-07T12:31:18;6.0;;;6.0;;
21120;SDS011;12519;43.318;21.898;2023-05-07T12:35:56;7.0;;;7.0;;
21120;SDS011;12519;43.318;21.898;2023-05-07T12:40:40;7.0;;;7.0;;
21120;SDS011;12519;43.318;21.898;2023-05-07T12:45:21;8.0;;;8.0;;
21120;SDS011;12519;43.318;21.898;2023-05-07T12:49:59;8.0;;;8.0;;
21120;SDS011;12519;43.318;21.898;2023-05-07T12:54:38;8.0;;;8.0;;
21120;SDS011;12519;43.318;21.898;2023-05-07T12:59:15;8.0;;;8.0;;
21120;SDS011;12519;43.318;21.898;2023-05-07T13:03:51;8.0;;;8.0;;
21120;SDS011;12519;43.318;21.898;2023-05-07T13:08:33;8.0;;;8.0;;
21120;SDS011;12519;43.318;21.898;2023-05-07T13:13:10;7.0;;;7.0;;
21120;SDS011;12519;43.318;21.898;2023-05-07T13:17:46;7.0;;;7.0;;
21120;SDS011;12519;43.318;21.898;2023-05-07T13:22:22;7.0;;;7.0;;
21120;SDS011;12519;43.318;21.898;2023-05-07T13:26:59;6.0;;;6.0;;
21120;SDS011;12519;43.318;21.898;2023-05-07T13:31:35;6.0;;;6.0;;
21120;SDS011;12519;43.318;21.898;2023-05-07T13:36:11;6.0;;;6.0;;
21120;SDS011;12519;43.318;21.898;2023-05-07T13:40:48;6.0;;;6.0;;
21120;SDS011;12519;43.318;21.898;2023-05-07T13:45:25;6.0;;;6.0;;
21120;SDS011;12519;43.318;21.898;2023-05-07T13:50:03;6.0;;;6.0;;
21120;SDS011;12519;43.318;21.898;2023-05-07T13:54:43;8.0;;;7.0;;
21120;SDS011;12519;43.318;21.898;2023-05-07T13:59:19;8.0;;;7.0;;
21120;SDS011;12519;43.318;21.898;2023-05-07T14:03:56;9.0;;;8.0;;
21120;SDS011;12519;43.318;21.898;2023-05-07T14:08:33;9.0;;;8.0;;
21120;SDS011;12519;43.318;21.898;2023-05-07T14:13:10;9.0;;;8.0;;
21120;SDS011;12519;43.318;21.898;2023-05-07T14:17:46;9.0;;;8.0;;
21120;SDS011;12519;43.318;21.898;2023-05-07T14:22:23;9.0;;;8.0;;
21120;SDS011;12519;43.318;21.898;2023-05-07T14:27:00;9.0;;;8.0;;
21120;SDS011;12519;43.318;21.898;2023-05-07T14:31:36;9.0;;;8.0;;
21120;SDS011;12519;43.318;21.898;2023-05-07T14:36:13;8.0;;;7.0;;
21120;SDS011;12519;43.318;21.898;2023-05-07T14:40:49;8.0;;;7.0;;
21120;SDS011;12519;43.318;21.898;2023-05-07T14:45:26;7.0;;;6.0;;
21120;SDS011;12519;43.318;21.898;2023-05-07T14:50:03;7.0;;;6.0;;
21120;SDS011;12519;43.318;21.898;2023-05-07T14:54:41;7.0;;;6.0;;
21120;SDS011;12519;43.318;21.898;2023-05-07T14:59:19;7.0;;;6.0;;
21120;SDS011;12519;43.318;21.898;2023-05-07T15:03:56;7.0;;;7.0;;
21120;SDS011;12519;43.318;21.898;2023-05-07T15:08:33;7.0;;;7.0;;
21120;SDS011;12519;43.318;21.898;2023-05-07T15:13:12;8.0;;;8.0;;
21120;SDS011;12519;43.318;21.898;2023-05-07T15:17:49;8.0;;;8.0;;
21120;SDS011;12519;43.318;21.898;2023-05-07T15:22:26;8.0;;;8.0;;
21120;SDS011;12519;43.318;21.898;2023-05-07T15:27:03;9.0;;;8.0;;
21120;SDS011;12519;43.318;21.898;2023-05-07T15:31:39;9.0;;;8.0;;
21120;SDS011;12519;43.318;21.898;2023-05-07T15:36:16;9.0;;;8.0;;
21120;SDS011;12519;43.318;21.898;2023-05-07T15:40:52;9.0;;;8.0;;
21120;SDS011;12519;43.318;21.898;2023-05-07T15:45:29;9.0;;;8.0;;
21120;SDS011;12519;43.318;21.898;2023-05-07T15:50:07;9.0;;;8.0;;
21120;SDS011;12519;43.318;21.898;2023-05-07T15:54:45;10.0;;;9.0;;
21120;SDS011;12519;43.318;21.898;2023-05-07T15:59:21;10.0;;;9.0;;
21120;SDS011;12519;43.318;21.898;2023-05-07T16:03:57;11.0;;;10.0;;
21120;SDS011;12519;43.318;21.898;2023-05-07T16:08:34;11.0;;;10.0;;
21120;SDS011;12519;43.318;21.898;2023-05-07T16:13:10;10.0;;;9.0;;
21120;SDS011;12519;43.318;21.898;2023-05-07T16:17:47;10.0;;;9.0;;
21120;SDS011;12519;43.318;21.898;2023-05-07T16:22:25;10.0;;;9.0;;
21120;SDS011;12519;43.318;21.898;2023-05-07T16:27:01;9.0;;;8.0;;
21120;SDS011;12519;43.318;21.898;2023-05-07T16:31:38;9.0;;;8.0;;
21120;SDS011;12519;43.318;21.898;2023-05-07T16:36:15;8.0;;;8.0;;
21120;SDS011;12519;43.318;21.898;2023-05-07T16:40:52;8.0;;;8.0;;
21120;SDS011;12519;43.318;21.898;2023-05-07T16:45:29;8.0;;;7.0;;
21120;SDS011;12519;43.318;21.898;2023-05-07T16:50:07;8.0;;;7.0;;
21120;SDS011;12519;43.318;21.898;2023-05-07T16:54:46;8.0;;;7.0;;
21120;SDS011;12519;43.318;21.898;2023-05-07T16:59:23;8.0;;;7.0;;
21120;SDS011;12519;43.318;21.898;2023-05-07T17:03:59;8.0;;;7.0;;
21120;SDS011;12519;43.318;21.898;2023-05-07T17:08:36;8.0;;;7.0;;
21120;SDS011;12519;43.318;21.898;2023-05-07T17:13:12;8.0;;;8.0;;
21120;SDS011;12519;43.318;21.898;2023-05-07T17:17:49;8.0;;;8.0;;
21120;SDS011;12519;43.318;21.898;2023-05-07T17:22:26;8.0;;;8.0;;
21120;SDS011;12519;43.318;21.898;2023-05-07T17:27:03;9.0;;;8.0;;
21120;SDS011;12519;43.318;21.898;2023-05-07T17:31:39;9.0;;;8.0;;
21120;SDS011;12519;43.318;21.898;2023-05-07T17:36:16;8.0;;;8.0;;
21120;SDS011;12519;43.318;21.898;2023-05-07T17:40:53;8.0;;;8.0;;
21120;SDS011;12519;43.318;21.898;2023-05-07T17:45:31;7.0;;;7.0;;
21120;SDS011;12519;43.318;21.898;2023-05-07T17:50:10;7.0;;;7.0;;
21120;SDS011;12519;43.318;21.898;2023-05-07T17:54:49;7.0;;;7.0;;
21120;SDS011;12519;43.318;21.898;2023-05-07T17:59:25;7.0;;;7.0;;
21120;SDS011;12519;43.318;21.898;2023-05-07T18:13:16;8.0;;;7.0;;
21120;SDS011;12519;43.318;21.898;2023-05-07T18:17:52;8.0;;;7.0;;
21120;SDS011;12519;43.318;21.898;2023-05-07T18:22:29;8.0;;;7.0;;
21120;SDS011;12519;43.318;21.898;2023-05-07T18:27:05;8.0;;;7.0;;
21120;SDS011;12519;43.318;21.898;2023-05-07T18:31:41;8.0;;;7.0;;
21120;SDS011;12519;43.318;21.898;2023-05-07T18:36:18;8.0;;;8.0;;
21120;SDS011;12519;43.318;21.898;2023-05-07T18:41:02;8.0;;;8.0;;
21120;SDS011;12519;43.318;21.898;2023-05-07T18:45:38;9.0;;;8.0;;
21120;SDS011;12519;43.318;21.898;2023-05-07T18:50:15;9.0;;;8.0;;
21120;SDS011;12519;43.318;21.898;2023-05-07T18:54:51;8.0;;;8.0;;
21120;SDS011;12519;43.318;21.898;2023-05-07T18:59:28;8.0;;;8.0;;
21120;SDS011;12519;43.318;21.898;2023-05-07T19:04:05;8.0;;;8.0;;
21120;SDS011;12519;43.318;21.898;2023-05-07T19:08:41;8.0;;;8.0;;
21120;SDS011;12519;43.318;21.898;2023-05-07T19:13:18;8.0;;;8.0;;
21120;SDS011;12519;43.318;21.898;2023-05-07T19:17:55;8.0;;;8.0;;
21120;SDS011;12519;43.318;21.898;2023-05-07T19:22:31;8.0;;;8.0;;
21120;SDS011;12519;43.318;21.898;2023-05-07T19:27:08;7.0;;;7.0;;
21120;SDS011;12519;43.318;21.898;2023-05-07T19:31:45;7.0;;;7.0;;
21120;SDS011;12519;43.318;21.898;2023-05-07T19:36:22;10.0;;;10.0;;
21120;SDS011;12519;43.318;21.898;2023-05-07T19:40:58;10.0;;;10.0;;
21120;SDS011;12519;43.318;21.898;2023-05-07T19:45:35;13.0;;;13.0;;
21120;SDS011;12519;43.318;21.898;2023-05-07T19:50:12;13.0;;;13.0;;
21120;SDS011;12519;43.318;21.898;2023-05-07T19:54:49;13.0;;;12.0;;
21120;SDS011;12519;43.318;21.898;2023-05-07T19:59:26;13.0;;;12.0;;
21120;SDS011;12519;43.318;21.898;2023-05-07T20:04:04;13.0;;;12.0;;
21120;SDS011;12519;43.318;21.898;2023-05-07T20:08:41;13.0;;;12.0;;
21120;SDS011;12519;43.318;21.898;2023-05-07T20:13:18;13.0;;;12.0;;
21120;SDS011;12519;43.318;21.898;2023-05-07T20:17:55;13.0;;;12.0;;
21120;SDS011;12519;43.318;21.898;2023-05-07T20:22:32;13.0;;;12.0;;
21120;SDS011;12519;43.318;21.898;2023-05-07T20:27:08;13.0;;;11.0;;
21120;SDS011;12519;43.318;21.898;2023-05-07T20:31:45;13.0;;;11.0;;
21120;SDS011;12519;43.318;21.898;2023-05-07T20:36:22;14.0;;;13.0;;
21120;SDS011;12519;43.318;21.898;2023-05-07T20:41:06;14.0;;;13.0;;
21120;SDS011;12519;43.318;21.898;2023-05-07T20:45:46;16.0;;;15.0;;
21120;SDS011;12519;43.318;21.898;2023-05-07T20:50:25;16.0;;;15.0;;
21120;SDS011;12519;43.318;21.898;2023-05-07T20:55:05;15.0;;;14.0;;
21120;SDS011;12519;43.318;21.898;2023-05-07T20:59:43;15.0;;;14.0;;
21120;SDS011;12519;43.318;21.898;2023-05-07T21:04:19;14.0;;;12.0;;
21120;SDS011;12519;43.318;21.898;2023-05-07T21:08:56;14.0;;;12.0;;
21120;SDS011;12519;43.318;21.898;2023-05-07T21:13:32;19.0;;;16.0;;
21120;SDS011;12519;43.318;21.898;2023-05-07T21:18:09;19.0;;;16.0;;
21120;SDS011;12519;43.318;21.898;2023-05-07T21:22:45;19.0;;;16.0;;
21120;SDS011;12519;43.318;21.898;2023-05-07T21:27:22;24.0;;;21.0;;
21120;SDS011;12519;43.318;21.898;2023-05-07T21:31:59;24.0;;;21.0;;
21120;SDS011;12519;43.318;21.898;2023-05-07T21:36:36;20.0;;;18.0;;
21120;SDS011;12519;43.318;21.898;2023-05-07T21:41:13;20.0;;;18.0;;
21120;SDS011;12519;43.318;21.898;2023-05-07T21:45:50;15.0;;;14.0;;
21120;SDS011;12519;43.318;21.898;2023-05-07T21:50:27;15.0;;;14.0;;
21120;SDS011;12519;43.318;21.898;2023-05-07T21:55:07;13.0;;;12.0;;
21120;SDS011;12519;43.318;21.898;2023-05-07T21:59:45;13.0;;;12.0;;
21120;SDS011;12519;43.318;21.898;2023-05-07T22:04:22;11.0;;;10.0;;
21120;SDS011;12519;43.318;21.898;2023-05-07T22:08:59;11.0;;;10.0;;
21120;SDS011;12519;43.318;21.898;2023-05-07T22:13:35;12.0;;;10.0;;
21120;SDS011;12519;43.318;21.898;2023-05-07T22:18:12;12.0;;;10.0;;
21120;SDS011;12519;43.318;21.898;2023-05-07T22:22:54;12.0;;;10.0;;
21120;SDS011;12519;43.318;21.898;2023-05-07T22:27:31;12.0;;;11.0;;
21120;SDS011;12519;43.318;21.898;2023-05-07T22:32:08;12.0;;;11.0;;
21120;SDS011;12519;43.318;21.898;2023-05-07T22:36:44;13.0;;;12.0;;
21120;SDS011;12519;43.318;21.898;2023-05-07T22:41:21;13.0;;;12.0;;
21120;SDS011;12519;43.318;21.898;2023-05-07T22:45:59;14.0;;;13.0;;
21120;SDS011;12519;43.318;21.898;2023-05-07T22:50:38;14.0;;;13.0;;
21120;SDS011;12519;43.318;21.898;2023-05-07T22:55:15;14.0;;;12.0;;
21120;SDS011;12519;43.318;21.898;2023-05-07T22:59:54;14.0;;;12.0;;
21120;SDS011;12519;43.318;21.898;2023-05-07T23:04:32;13.0;;;12.0;;
21120;SDS011;12519;43.318;21.898;2023-05-07T23:09:09;13.0;;;12.0;;
21120;SDS011;12519;43.318;21.898;2023-05-07T23:13:46;16.0;;;12.0;;
21120;SDS011;12519;43.318;21.898;2023-05-07T23:18:22;16.0;;;12.0;;
21120;SDS011;12519;43.318;21.898;2023-05-07T23:22:59;16.0;;;12.0;;
21120;SDS011;12519;43.318;21.898;2023-05-07T23:27:36;18.0;;;11.0;;
21120;SDS011;12519;43.318;21.898;2023-05-07T23:32:13;18.0;;;11.0;;
21120;SDS011;12519;43.318;21.898;2023-05-07T23:36:50;15.0;;;11.0;;
21120;SDS011;12519;43.318;21.898;2023-05-07T23:41:26;15.0;;;11.0;;
21120;SDS011;12519;43.318;21.898;2023-05-07T23:46:03;12.0;;;11.0;;
21120;SDS011;12519;43.318;21.898;2023-05-07T23:50:39;12.0;;;11.0;;
21120;SDS011;12519;43.318;21.898;2023-05-07T23:55:16;12.0;;;10.0;;
21120;SDS011;12519;43.318;21.898;2023-05-07T23:59:52;12.0;;;10.0;;
